Time;durP1;ratioP1;P1;durP2;ratioP2;P2;SDS_P1;SDS_P2;PMS_P1;PMS_P2;Temp;Humidity;BMP_temperature;BMP_pressure;BME280_temperature;BME280_humidity;BME280_pressure;Samples;Min_cycle;Max_cycle;Signal;HPM_P1;HPM_P2
2021/01/01 00:01:39;;;;;;;16.67;9.50;;;;;;;1.53;72.09;99872.63;5028926;28;20037;-81
2021/01/01 00:04:05;;;;;;;22.45;12.02;;;;;;;1.47;72.42;99868.53;5028790;28;20026;-81
2021/01/01 00:06:30;;;;;;;19.05;13.02;;;;;;;1.52;72.04;99876.97;5028883;28;20033;-81
2021/01/01 00:08:56;;;;;;;25.77;15.68;;;;;;;1.45;71.47;99875.53;5030358;28;20006;-81
2021/01/01 00:11:21;;;;;;;28.15;14.45;;;;;;;1.50;72.42;99876.19;5030690;28;20149;-81
2021/01/01 00:13:47;;;;;;;26.35;15.43;;;;;;;1.37;71.57;99887.91;5030057;28;20155;-81
2021/01/01 00:16:15;;;;;;;23.02;14.90;;;;;;;1.44;71.79;99873.00;5048536;28;20491;-81
2021/01/01 00:18:42;;;;;;;24.35;15.65;;;;;;;1.44;72.00;99879.00;5047171;28;20041;-82
2021/01/01 00:21:09;;;;;;;25.30;15.90;;;;;;;1.35;71.87;99884.53;5047346;28;20029;-81
2021/01/01 00:23:35;;;;;;;24.67;14.63;;;;;;;1.35;71.17;99879.38;5048205;28;20025;-81
2021/01/01 00:26:01;;;;;;;30.23;17.02;;;;;;;1.39;71.54;99888.69;5048548;28;20514;-81
2021/01/01 00:28:26;;;;;;;25.77;14.45;;;;;;;1.38;70.66;99881.81;5048169;28;20048;-81
2021/01/01 00:30:52;;;;;;;25.63;16.02;;;;;;;1.40;71.42;99885.19;5046254;28;20040;-81
2021/01/01 00:33:18;;;;;;;51.72;25.25;;;;;;;1.50;72.45;99883.97;5031984;28;20084;-81
2021/01/01 00:35:44;;;;;;;51.97;21.20;;;;;;;1.56;71.64;99883.72;5028325;28;20435;-81
2021/01/01 00:38:09;;;;;;;53.15;21.70;;;;;;;1.55;72.40;99887.19;5028343;28;20053;-81
2021/01/01 00:40:34;;;;;;;67.38;27.67;;;;;;;1.53;71.26;99885.56;5017129;28;20080;-81
2021/01/01 00:43:00;;;;;;;87.13;35.58;;;;;;;1.53;71.77;99888.16;5020380;28;20048;-81
2021/01/01 00:45:25;;;;;;;61.95;28.40;;;;;;;1.34;70.42;99891.47;5023709;28;20018;-81
2021/01/01 00:47:50;;;;;;;61.10;25.65;;;;;;;1.35;70.64;99887.13;5015983;28;20555;-81
2021/01/01 00:50:16;;;;;;;66.05;25.33;;;;;;;1.38;71.39;99902.50;5014963;28;20492;-81
2021/01/01 00:52:41;;;;;;;77.07;28.88;;;;;;;1.41;70.87;99902.41;5015032;28;20384;-81
2021/01/01 00:55:08;;;;;;;84.80;31.70;;;;;;;1.47;71.18;99894.41;5014662;28;20026;-81
2021/01/01 00:57:33;;;;;;;72.78;27.98;;;;;;;1.51;71.13;99901.16;5014626;28;20067;-82
2021/01/01 00:59:59;;;;;;;77.53;31.60;;;;;;;1.49;72.10;99902.97;5014382;28;20511;-81
2021/01/01 01:02:25;;;;;;;308.50;49.88;;;;;;;1.32;70.22;99901.03;5025524;28;20391;-82
2021/01/01 01:04:50;;;;;;;149.82;44.72;;;;;;;1.27;70.88;99900.34;5017862;28;20041;-81
2021/01/01 01:07:16;;;;;;;96.55;43.70;;;;;;;1.32;71.73;99913.09;5014577;28;20029;-81
2021/01/01 01:09:42;;;;;;;98.47;43.53;;;;;;;1.30;71.78;99907.16;5015066;28;20056;-81
2021/01/01 01:12:07;;;;;;;80.18;44.28;;;;;;;1.36;71.46;99910.38;5014251;28;20030;-81
2021/01/01 01:14:33;;;;;;;76.80;40.63;;;;;;;1.37;72.13;99908.59;5014433;28;20025;-82
2021/01/01 01:16:59;;;;;;;92.47;42.47;;;;;;;1.41;71.56;99911.94;5014394;28;20037;-81
2021/01/01 01:19:24;;;;;;;151.15;42.97;;;;;;;1.28;69.93;99914.13;5026671;28;20040;-81
2021/01/01 01:21:49;;;;;;;81.85;37.78;;;;;;;1.27;71.59;99912.44;5034118;28;20079;-81
2021/01/01 01:24:15;;;;;;;96.22;39.20;;;;;;;1.34;71.34;99916.47;5034006;28;20021;-82
2021/01/01 01:26:40;;;;;;;198.98;47.78;;;;;;;0.96;71.13;99919.56;5032545;28;20244;-81
2021/01/01 01:29:05;;;;;;;103.18;48.00;;;;;;;1.11;71.79;99922.53;5033577;28;20209;-82
2021/01/01 01:31:31;;;;;;;83.50;40.78;;;;;;;1.18;71.20;99927.41;5033658;28;20083;-82
2021/01/01 01:33:56;;;;;;;146.25;44.88;;;;;;;0.71;71.64;99929.97;5020982;28;20029;-81
2021/01/01 01:36:22;;;;;;;90.97;43.80;;;;;;;0.89;72.68;99930.19;5013809;28;20472;-81
2021/01/01 01:38:47;;;;;;;84.10;40.28;;;;;;;0.95;71.92;99922.22;5013753;28;20033;-81
2021/01/01 01:41:12;;;;;;;78.32;40.78;;;;;;;0.92;71.65;99941.25;5013895;28;20030;-81
2021/01/01 01:43:38;;;;;;;114.25;44.08;;;;;;;0.76;71.17;99929.78;5013579;28;20030;-81
2021/01/01 01:46:03;;;;;;;104.47;44.10;;;;;;;0.60;72.68;99937.22;5013655;28;20025;-81
2021/01/01 01:48:32;;;;;;;79.13;41.08;;;;;;;0.74;72.50;99944.50;5022681;28;20060;-81
2021/01/01 01:50:59;;;;;;;93.97;41.30;;;;;;;0.61;71.51;99946.66;5032394;28;20531;-81
2021/01/01 01:53:26;;;;;;;114.80;49.03;;;;;;;0.68;71.53;99950.72;5031567;28;20025;-82
2021/01/01 01:55:52;;;;;;;88.15;41.47;;;;;;;0.78;72.16;99956.41;5033203;28;20029;-81
2021/01/01 01:58:22;;;;;;;80.60;40.22;;;;;;;0.85;71.98;99947.56;5033105;28;20120;-81
2021/01/01 02:00:57;;;;;;;102.72;42.10;;;;;;;0.81;70.53;99952.88;5031679;28;20053;-81
2021/01/01 02:03:22;;;;;;;79.15;42.38;;;;;;;0.77;71.76;99959.88;5022157;28;20026;-81
2021/01/01 02:05:48;;;;;;;74.18;38.03;;;;;;;0.66;69.97;99952.53;5013321;28;20528;-81
2021/01/01 02:08:13;;;;;;;100.28;41.17;;;;;;;0.65;69.47;99957.72;5013193;28;20033;-81
2021/01/01 02:10:39;;;;;;;68.30;34.13;;;;;;;0.25;70.07;99959.91;5013541;28;20071;-80
2021/01/01 02:13:05;;;;;;;96.22;36.15;;;;;;;0.34;69.94;99969.94;5013143;28;20030;-80
2021/01/01 02:15:31;;;;;;;65.35;34.97;;;;;;;0.33;70.49;99959.66;5011864;28;20061;-81
2021/01/01 02:17:57;;;;;;;70.35;37.10;;;;;;;0.34;70.64;99966.53;5015309;28;20113;-81
2021/01/01 02:20:24;;;;;;;62.38;32.20;;;;;;;0.46;69.83;99966.13;5012906;28;20357;-81
2021/01/01 02:22:50;;;;;;;75.57;37.78;;;;;;;0.18;70.34;99966.19;5012951;28;20052;-81
2021/01/01 02:25:15;;;;;;;59.20;33.35;;;;;;;0.28;70.63;99964.97;5012898;28;20057;-81
2021/01/01 02:27:41;;;;;;;66.63;35.22;;;;;;;0.34;70.85;99972.53;5012881;28;20112;-81
2021/01/01 02:30:08;;;;;;;65.70;37.03;;;;;;;0.39;70.81;99973.22;5012697;28;20029;-81
2021/01/01 02:32:34;;;;;;;68.03;36.78;;;;;;;0.34;70.27;99974.28;5020502;28;20029;-81
2021/01/01 02:34:59;;;;;;;79.97;38.45;;;;;;;0.26;69.15;99981.41;5028075;28;20025;-81
2021/01/01 02:37:25;;;;;;;64.85;37.75;;;;;;;0.27;71.17;99973.63;5012463;28;20468;-81
2021/01/01 02:39:51;;;;;;;71.20;37.38;;;;;;;0.12;70.45;99987.88;5012355;28;20057;-81
2021/01/01 02:42:17;;;;;;;108.35;44.95;;;;;;;-0.09;72.18;99984.22;5012909;28;20033;-81
2021/01/01 02:44:42;;;;;;;78.03;41.45;;;;;;;0.19;72.42;99980.75;5012732;28;20026;-81
2021/01/01 02:47:08;;;;;;;85.50;42.10;;;;;;;0.34;71.77;99988.03;5012819;28;20029;-81
2021/01/01 02:49:34;;;;;;;85.03;39.78;;;;;;;0.39;70.58;99975.81;5013278;28;20022;-81
2021/01/01 02:52:00;;;;;;;84.55;41.15;;;;;;;0.47;71.36;99985.88;5031958;28;20495;-81
2021/01/01 02:54:26;;;;;;;74.65;38.97;;;;;;;0.35;69.59;99989.69;5032104;28;20025;-81
2021/01/01 02:56:51;;;;;;;82.07;39.85;;;;;;;0.22;70.30;99980.69;5032266;28;20032;-81
2021/01/01 02:59:17;;;;;;;86.40;41.13;;;;;;;0.29;71.25;99979.56;5032001;28;20026;-81
2021/01/01 03:01:42;;;;;;;81.13;38.03;;;;;;;0.05;71.21;99977.78;5032154;28;20034;-81
2021/01/01 03:04:09;;;;;;;74.43;38.22;;;;;;;0.14;71.15;99975.75;5031952;28;20034;-81
2021/01/01 03:06:34;;;;;;;95.60;36.80;;;;;;;0.14;70.24;99982.66;5031331;28;20495;-81
2021/01/01 03:09:00;;;;;;;63.63;36.63;;;;;;;0.21;70.39;99976.41;5031422;28;20108;-81
2021/01/01 03:11:25;;;;;;;93.25;34.17;;;;;;;-0.09;70.30;99976.47;5031965;28;20030;-81
2021/01/01 03:13:50;;;;;;;79.60;38.13;;;;;;;-0.18;71.83;99979.31;5031920;28;20117;-81
2021/01/01 03:16:16;;;;;;;60.92;34.17;;;;;;;-0.06;71.43;99984.13;5031859;28;20479;-81
2021/01/01 03:18:41;;;;;;;60.60;33.70;;;;;;;-0.05;69.35;99980.66;5031615;28;20117;-81
2021/01/01 03:21:06;;;;;;;59.35;33.38;;;;;;;-0.34;71.61;99983.28;5013683;28;20026;-81
2021/01/01 03:23:32;;;;;;;77.55;31.35;;;;;;;-0.41;71.72;99978.28;5012078;28;20018;-80
2021/01/01 03:25:57;;;;;;;55.53;33.75;;;;;;;-0.35;72.56;99994.50;5010870;28;20437;-81
2021/01/01 03:28:23;;;;;;;54.97;32.90;;;;;;;-0.44;71.49;99991.28;5011934;28;20034;-81
2021/01/01 03:30:48;;;;;;;53.40;31.48;;;;;;;-0.50;70.74;99991.44;5011856;28;20022;-81
2021/01/01 03:33:13;;;;;;;106.22;34.42;;;;;;;-0.81;69.93;99983.75;5011997;28;20026;-81
2021/01/01 03:35:39;;;;;;;60.80;34.33;;;;;;;-0.70;71.56;99991.19;5027674;28;20036;-81
2021/01/01 03:38:05;;;;;;;48.03;28.63;;;;;;;-0.57;71.11;99996.81;5031362;28;20032;-81
2021/01/01 03:40:30;;;;;;;56.40;32.90;;;;;;;-0.62;71.01;99990.06;5031543;28;20033;-81
2021/01/01 03:42:56;;;;;;;60.40;35.58;;;;;;;-0.66;71.17;99997.94;5031697;28;20014;-81
2021/01/01 03:45:21;;;;;;;50.75;29.77;;;;;;;-0.76;69.62;99991.38;5031807;28;20502;-80
2021/01/01 03:47:46;;;;;;;46.22;28.08;;;;;;;-0.73;70.08;99997.28;5031612;28;20160;-81
2021/01/01 03:50:12;;;;;;;44.15;27.83;;;;;;;-0.73;70.32;99996.41;5029794;28;20493;-80
2021/01/01 03:52:37;;;;;;;39.63;26.70;;;;;;;-0.82;70.81;100003.53;5031401;28;20026;-81
2021/01/01 03:55:03;;;;;;;39.38;25.05;;;;;;;-0.79;70.01;99997.44;5031471;28;20030;-81
2021/01/01 03:57:29;;;;;;;42.17;26.08;;;;;;;-0.70;70.58;99998.94;5031506;28;20049;-81
2021/01/01 03:59:54;;;;;;;39.17;25.20;;;;;;;-0.65;69.95;99999.66;5031634;28;20067;-81
2021/01/01 04:02:19;;;;;;;44.55;28.13;;;;;;;-0.71;70.79;99995.50;5031415;28;20036;-81
2021/01/01 04:04:44;;;;;;;45.28;26.80;;;;;;;-0.71;70.64;99999.78;5015559;28;20107;-81
2021/01/01 04:07:10;;;;;;;44.90;28.48;;;;;;;-0.64;71.38;99985.84;5011724;28;20061;-81
2021/01/01 04:09:35;;;;;;;47.95;29.10;;;;;;;-0.55;71.36;100001.06;5012041;28;20077;-81
2021/01/01 04:12:00;;;;;;;49.92;27.13;;;;;;;-0.61;70.55;100003.84;5011654;28;20022;-81
2021/01/01 04:14:26;;;;;;;44.60;27.73;;;;;;;-0.55;70.37;100003.66;5012133;28;20033;-81
2021/01/01 04:16:51;;;;;;;42.03;27.15;;;;;;;-0.63;70.13;100006.44;5015499;28;20022;-81
2021/01/01 04:19:17;;;;;;;42.80;27.20;;;;;;;-0.83;69.59;100003.56;5029191;28;20029;-81
2021/01/01 04:21:46;;;;;;;49.58;29.48;;;;;;;-0.72;69.92;100005.84;5035091;28;20037;-81
2021/01/01 04:24:13;;;;;;;51.47;29.48;;;;;;;-0.70;70.38;100006.66;5034875;28;20037;-81
2021/01/01 04:26:39;;;;;;;47.10;28.70;;;;;;;-0.85;71.33;99995.91;5035121;28;20025;-81
2021/01/01 04:29:04;;;;;;;45.85;28.73;;;;;;;-0.98;72.02;99994.53;5034933;28;20440;-81
2021/01/01 04:31:32;;;;;;;47.22;29.73;;;;;;;-0.92;70.12;100001.25;5033581;28;20029;-81
2021/01/01 04:33:57;;;;;;;44.10;29.65;;;;;;;-1.10;72.39;99997.44;5020186;28;20033;-80
2021/01/01 04:36:22;;;;;;;44.78;29.65;;;;;;;-0.81;71.87;99989.75;5014841;28;20464;-81
2021/01/01 04:38:47;;;;;;;44.25;28.02;;;;;;;-0.74;71.79;99984.44;5014735;28;20490;-81
2021/01/01 04:41:14;;;;;;;45.35;28.20;;;;;;;-0.42;71.17;99986.06;5014806;28;20029;-81
2021/01/01 04:43:39;;;;;;;47.58;27.63;;;;;;;-0.34;69.48;99978.94;5014874;28;20033;-81
2021/01/01 04:46:05;;;;;;;45.90;28.52;;;;;;;-0.26;70.06;99977.00;5014818;28;20022;-81
2021/01/01 04:48:30;;;;;;;52.05;30.17;;;;;;;-0.12;69.99;99978.28;5026161;28;20057;-81
2021/01/01 04:50:56;;;;;;;46.38;29.75;;;;;;;-0.06;70.05;99989.28;5034520;28;20384;-80
2021/01/01 04:53:22;;;;;;;40.20;25.92;;;;;;;0.01;70.40;99984.78;5034460;28;20105;-81
2021/01/01 04:55:49;;;;;;;41.65;27.15;;;;;;;-0.04;68.54;99986.66;5034385;28;20105;-81
2021/01/01 04:58:16;;;;;;;40.22;26.50;;;;;;;-0.18;68.85;99988.81;5034330;28;20036;-81
2021/01/01 05:00:41;;;;;;;37.83;25.70;;;;;;;-0.41;68.41;99988.63;5034449;28;20446;-81
2021/01/01 05:03:07;;;;;;;42.38;28.27;;;;;;;-0.26;69.87;99983.88;5023525;28;20063;-81
2021/01/01 05:05:33;;;;;;;40.08;26.48;;;;;;;-0.10;69.90;99982.53;5013200;28;20029;-81
2021/01/01 05:07:58;;;;;;;41.45;23.88;;;;;;;-0.11;69.25;99980.84;5014489;28;20033;-81
2021/01/01 05:10:23;;;;;;;35.83;23.35;;;;;;;-0.12;69.12;99986.91;5015987;28;20041;-81
2021/01/01 05:12:49;;;;;;;37.55;24.73;;;;;;;-0.08;69.28;99985.91;5034077;28;20032;-81
2021/01/01 05:15:33;;;;;;;34.40;23.55;;;;;;;0.03;68.44;99987.31;5034039;28;20045;-81
2021/01/01 05:17:58;;;;;;;38.17;24.67;;;;;;;0.04;68.54;99995.03;5034062;28;20087;-81
2021/01/01 05:20:27;;;;;;;38.78;24.77;;;;;;;-0.01;68.76;100000.31;5033870;28;20022;-81
2021/01/01 05:22:56;;;;;;;46.65;28.65;;;;;;;0.01;69.37;100005.44;5026003;28;20113;-81
2021/01/01 05:25:24;;;;;;;41.90;27.80;;;;;;;-0.07;68.77;100000.50;5013789;28;21081;-81
2021/01/01 05:27:58;;;;;;;43.67;27.30;;;;;;;0.01;68.37;99995.09;5012474;28;20063;-81
2021/01/01 05:30:31;;;;;;;38.00;26.25;;;;;;;0.11;69.06;100006.81;5013929;28;20022;-81
2021/01/01 05:32:57;;;;;;;39.65;26.00;;;;;;;0.26;69.67;99995.19;5012562;28;20073;-81
2021/01/01 05:35:30;;;;;;;42.30;28.20;;;;;;;0.30;69.58;100007.09;5013926;28;20141;-81
2021/01/01 05:37:56;;;;;;;45.10;28.48;;;;;;;0.21;69.59;100002.22;5023408;28;20116;-81
2021/01/01 05:40:31;;;;;;;44.42;27.95;;;;;;;0.42;70.60;100005.03;5033488;28;20100;-81
2021/01/01 05:43:17;;;;;;;43.47;27.70;;;;;;;0.53;70.15;100003.78;5033497;28;20491;-81
2021/01/01 05:45:42;;;;;;;39.00;24.35;;;;;;;0.33;69.03;100008.72;5033547;28;20037;-81
2021/01/01 05:48:08;;;;;;;39.13;25.83;;;;;;;0.36;69.30;100004.31;5031620;28;20030;-81
2021/01/01 05:50:35;;;;;;;41.88;26.63;;;;;;;0.49;68.22;100011.66;5033319;28;20029;-81
2021/01/01 05:53:16;;;;;;;45.92;28.92;;;;;;;0.60;68.78;100012.16;5033420;28;20061;-81
2021/01/01 05:55:43;;;;;;;48.15;29.08;;;;;;;0.76;69.66;100010.72;5031968;28;20037;-81
2021/01/01 05:58:22;;;;;;;49.40;30.77;;;;;;;0.52;69.61;100017.56;5033252;28;20120;-83
2021/01/01 06:00:52;;;;;;;48.47;29.17;;;;;;;0.68;69.98;100010.16;5033231;28;20033;-83
2021/01/01 06:03:24;;;;;;;45.57;29.50;;;;;;;0.87;68.75;100018.13;5022021;28;20117;-83
2021/01/01 06:05:57;;;;;;;45.25;26.88;;;;;;;0.87;68.95;100019.84;5013420;28;20025;-83
2021/01/01 06:08:27;;;;;;;44.95;29.85;;;;;;;0.77;68.88;100029.66;5011961;28;20030;-82
2021/01/01 06:10:58;;;;;;;43.92;27.88;;;;;;;0.94;69.74;100026.53;5013884;28;20033;-82
2021/01/01 06:13:23;;;;;;;41.33;26.53;;;;;;;1.03;68.53;100028.78;5013246;28;20022;-83
2021/01/01 06:15:57;;;;;;;45.05;29.88;;;;;;;1.07;69.24;100025.22;5013147;28;20681;-83
2021/01/01 06:18:27;;;;;;;42.83;29.55;;;;;;;1.15;68.89;100041.28;5013010;28;20029;-83
2021/01/01 06:21:07;;;;;;;46.80;30.17;;;;;;;1.01;68.95;100033.19;5012787;28;20028;-83
2021/01/01 06:23:37;;;;;;;49.30;30.65;;;;;;;1.10;68.96;100029.41;5013093;28;20057;-83
2021/01/01 06:26:12;;;;;;;49.17;31.90;;;;;;;1.02;69.56;100040.03;5013104;28;20540;-83
2021/01/01 06:28:44;;;;;;;55.25;30.75;;;;;;;1.23;69.98;100025.50;5012952;28;20427;-83
2021/01/01 06:31:11;;;;;;;51.65;34.20;;;;;;;1.19;70.10;100027.34;5011424;28;20029;-83
2021/01/01 06:33:42;;;;;;;50.88;31.55;;;;;;;1.21;69.91;100027.31;5030029;28;20091;-83
2021/01/01 06:36:07;;;;;;;53.53;32.60;;;;;;;1.45;69.67;100035.94;5018929;28;20128;-83
2021/01/01 06:38:37;;;;;;;47.00;31.38;;;;;;;1.50;70.12;100036.63;5012268;28;20041;-83
2021/01/01 06:41:04;;;;;;;53.28;31.25;;;;;;;1.63;70.24;100030.97;5012699;28;20034;-83
2021/01/01 06:43:52;;;;;;;48.55;31.45;;;;;;;1.55;69.09;100032.09;5012601;28;20155;-83
2021/01/01 06:46:38;;;;;;;49.45;30.38;;;;;;;1.68;70.13;100036.81;5012670;28;20432;-83
2021/01/01 06:49:08;;;;;;;47.80;30.27;;;;;;;1.75;69.30;100039.13;5012760;28;20104;-83
2021/01/01 06:51:34;;;;;;;48.90;29.52;;;;;;;1.79;69.74;100045.03;5030676;28;20034;-82
2021/01/01 06:54:15;;;;;;;44.20;29.75;;;;;;;1.87;69.08;100042.16;5032133;28;20033;-83
2021/01/01 06:56:42;;;;;;;46.20;29.33;;;;;;;1.89;68.64;100046.38;5032124;28;20029;-83
2021/01/01 06:59:09;;;;;;;44.60;29.45;;;;;;;1.76;69.05;100046.00;5019105;28;20581;-82
2021/01/01 07:01:44;;;;;;;54.67;31.13;;;;;;;1.80;68.93;100046.72;5010955;28;20033;-80
2021/01/01 07:04:10;;;;;;;46.72;31.30;;;;;;;1.89;69.35;100042.94;5012438;28;20022;-83
2021/01/01 07:06:37;;;;;;;50.25;30.83;;;;;;;2.04;69.30;100057.06;5012307;28;20079;-82
2021/01/01 07:09:05;;;;;;;52.22;33.15;;;;;;;2.08;69.15;100054.28;5011489;28;20022;-83
2021/01/01 07:11:30;;;;;;;47.20;30.05;;;;;;;2.16;69.20;100060.00;5010835;28;20388;-83
2021/01/01 07:14:01;;;;;;;50.67;30.48;;;;;;;2.16;68.96;100059.16;5023328;28;20041;-83
2021/01/01 07:16:34;;;;;;;51.47;31.85;;;;;;;2.23;69.15;100070.13;5014145;28;20521;-83
2021/01/01 07:19:00;;;;;;;48.72;31.88;;;;;;;2.40;69.21;100059.13;5012097;28;20120;-83
2021/01/01 07:21:26;;;;;;;48.35;31.02;;;;;;;2.31;69.16;100058.59;5012072;28;20041;-83
2021/01/01 07:23:51;;;;;;;46.65;30.63;;;;;;;2.30;69.70;100059.47;5012116;28;20041;-83
2021/01/01 07:26:17;;;;;;;49.53;32.85;;;;;;;2.33;69.90;100064.53;5012388;28;20499;-83
2021/01/01 07:28:47;;;;;;;46.92;29.85;;;;;;;2.36;70.60;100061.81;5012018;28;20499;-83
2021/01/01 07:31:14;;;;;;;42.13;26.88;;;;;;;2.55;70.30;100074.91;5027413;28;20029;-83
2021/01/01 07:33:40;;;;;;;43.00;29.92;;;;;;;2.44;69.22;100078.81;5031730;28;20025;-83
2021/01/01 07:36:08;;;;;;;45.92;29.42;;;;;;;2.50;70.44;100068.22;5031970;28;20502;-83
2021/01/01 07:38:37;;;;;;;41.60;27.50;;;;;;;2.51;69.70;100075.09;5030261;28;20041;-83
2021/01/01 07:41:03;;;;;;;42.20;29.40;;;;;;;2.55;70.37;100080.06;5020163;28;20029;-83
2021/01/01 07:43:29;;;;;;;37.78;24.42;;;;;;;2.55;70.28;100081.84;5011890;28;20048;-83
2021/01/01 07:45:56;;;;;;;35.47;24.83;;;;;;;2.43;69.72;100088.34;5012078;28;20384;-83
2021/01/01 07:48:21;;;;;;;44.38;28.40;;;;;;;2.30;70.18;100092.31;5011788;28;20034;-83
2021/01/01 07:50:46;;;;;;;43.85;28.00;;;;;;;2.29;71.71;100091.47;5018848;28;20032;-80
2021/01/01 07:53:13;;;;;;;42.42;26.90;;;;;;;2.47;71.19;100083.84;5035813;28;20021;-82
2021/01/01 07:55:40;;;;;;;42.20;27.50;;;;;;;2.45;69.73;100093.44;5035753;28;20064;-84
2021/01/01 07:58:10;;;;;;;38.63;25.88;;;;;;;2.57;70.52;100099.00;5035480;28;20075;-84
2021/01/01 08:00:43;;;;;;;37.90;24.83;;;;;;;2.73;70.65;100091.44;5022279;28;20084;-84
2021/01/01 08:03:10;;;;;;;31.67;19.73;;;;;;;2.84;70.62;100082.38;5034075;28;20455;-84
2021/01/01 08:05:36;;;;;;;27.98;18.77;;;;;;;2.86;70.42;100088.34;5027104;28;20101;-84
2021/01/01 08:08:12;;;;;;;27.48;19.60;;;;;;;2.83;70.28;100083.31;5015315;28;20037;-84
2021/01/01 08:10:38;;;;;;;24.00;16.05;;;;;;;2.98;70.32;100098.22;5019523;28;20021;-84
2021/01/01 08:13:12;;;;;;;18.67;13.20;;;;;;;2.99;71.00;100094.72;5020732;28;20022;-83
2021/01/01 08:15:37;;;;;;;15.38;10.18;;;;;;;3.05;70.92;100091.03;5018821;28;20113;-84
2021/01/01 08:18:12;;;;;;;14.77;9.70;;;;;;;3.07;71.19;100095.25;5034471;28;20129;-84
2021/01/01 08:20:38;;;;;;;17.13;9.40;;;;;;;3.15;71.13;100103.53;5042088;28;20029;-84
2021/01/01 08:23:11;;;;;;;19.48;9.75;;;;;;;3.14;71.14;100101.88;5034845;28;20031;-83
2021/01/01 08:25:37;;;;;;;14.32;8.35;;;;;;;3.28;71.03;100109.06;5029393;28;20057;-83
2021/01/01 08:28:04;;;;;;;16.45;8.98;;;;;;;3.36;71.50;100111.34;5034438;28;20039;-83
2021/01/01 08:30:30;;;;;;;12.98;7.43;;;;;;;3.43;71.11;100111.91;5031968;28;20396;-84
2021/01/01 08:32:57;;;;;;;11.20;7.60;;;;;;;3.44;71.35;100104.06;5020085;28;20021;-83
2021/01/01 08:35:23;;;;;;;16.77;8.63;;;;;;;3.50;71.33;100118.53;5034624;28;20028;-83
2021/01/01 08:37:49;;;;;;;17.02;9.80;;;;;;;3.53;71.05;100114.03;5034378;28;20383;-83
2021/01/01 08:40:15;;;;;;;17.00;9.75;;;;;;;3.37;71.92;100113.84;5034468;28;20034;-83
2021/01/01 08:42:41;;;;;;;20.35;10.93;;;;;;;3.43;72.60;100124.88;5031473;28;20029;-83
2021/01/01 08:45:11;;;;;;;19.08;10.45;;;;;;;3.68;71.63;100122.06;5021584;28;20034;-83
2021/01/01 08:47:42;;;;;;;17.70;9.80;;;;;;;3.68;71.33;100117.72;5025932;28;20058;-83
2021/01/01 08:50:29;;;;;;;16.80;9.83;;;;;;;3.75;71.63;100128.66;5025095;28;20040;-83
2021/01/01 08:52:58;;;;;;;18.48;9.68;;;;;;;3.72;72.05;100118.44;5025919;28;20033;-83
2021/01/01 08:55:24;;;;;;;21.77;11.40;;;;;;;3.74;71.52;100127.84;5025050;28;20022;-83
2021/01/01 08:57:50;;;;;;;21.13;11.60;;;;;;;3.86;71.69;100128.22;5029037;28;20029;-83
2021/01/01 09:00:16;;;;;;;17.27;11.30;;;;;;;3.93;71.32;100137.41;5023260;28;20447;-82
2021/01/01 09:02:42;;;;;;;25.63;14.02;;;;;;;3.86;72.04;100130.81;5013383;28;20017;-83
2021/01/01 09:05:11;;;;;;;23.67;14.43;;;;;;;3.93;72.15;100135.66;5014571;28;20028;-83
2021/01/01 09:07:36;;;;;;;26.15;13.88;;;;;;;3.98;71.62;100128.50;5014256;28;20037;-82
2021/01/01 09:10:15;;;;;;;27.98;15.50;;;;;;;3.95;71.96;100127.81;5014608;28;20034;-82
2021/01/01 09:12:40;;;;;;;26.27;15.40;;;;;;;4.01;71.46;100137.06;5014813;28;20112;-82
2021/01/01 09:15:06;;;;;;;31.52;17.52;;;;;;;4.04;71.74;100142.13;5022163;28;20100;-82
2021/01/01 09:17:31;;;;;;;29.55;17.52;;;;;;;4.03;71.83;100136.09;5025000;28;20037;-82
2021/01/01 09:20:10;;;;;;;34.35;19.73;;;;;;;3.97;71.42;100137.22;5025845;28;20088;-82
2021/01/01 09:22:36;;;;;;;38.38;22.95;;;;;;;3.93;71.85;100140.84;5023415;28;20128;-82
2021/01/01 09:25:21;;;;;;;45.50;24.80;;;;;;;3.98;71.14;100146.66;5028513;28;20457;-82
2021/01/01 09:27:48;;;;;;;47.92;27.55;;;;;;;3.90;71.12;100146.19;5030132;28;20126;-82
2021/01/01 09:30:16;;;;;;;45.80;25.40;;;;;;;3.91;70.77;100147.88;5031793;28;20026;-82
2021/01/01 09:32:45;;;;;;;45.88;28.25;;;;;;;4.06;70.74;100150.69;5033491;28;20738;-82
2021/01/01 09:35:12;;;;;;;65.47;31.17;;;;;;;4.04;69.39;100155.94;5030331;28;20106;-82
2021/01/01 09:37:37;;;;;;;47.40;28.45;;;;;;;4.20;69.55;100153.50;5032162;28;20031;-82
2021/01/01 09:40:03;;;;;;;44.45;28.63;;;;;;;3.98;70.48;100158.81;5033211;28;20048;-83
2021/01/01 09:42:29;;;;;;;45.92;28.83;;;;;;;4.04;70.58;100155.13;5032842;28;20027;-82
2021/01/01 09:44:54;;;;;;;47.13;27.98;;;;;;;3.98;71.00;100145.84;5032271;28;20057;-82
2021/01/01 09:47:19;;;;;;;39.00;24.02;;;;;;;4.04;71.10;100149.91;5033699;28;20076;-82
2021/01/01 09:49:44;;;;;;;44.58;27.30;;;;;;;4.07;71.37;100160.16;5030224;28;20087;-82
2021/01/01 09:52:10;;;;;;;48.67;28.05;;;;;;;3.86;70.98;100165.41;5026501;28;20045;-82
2021/01/01 09:54:35;;;;;;;45.08;27.38;;;;;;;3.94;71.22;100160.72;5015731;28;20026;-82
2021/01/01 09:57:01;;;;;;;42.42;24.83;;;;;;;4.06;71.00;100153.28;5016101;28;20030;-82
2021/01/01 09:59:26;;;;;;;42.05;24.45;;;;;;;4.13;71.68;100154.72;5020781;28;20030;-81
2021/01/01 10:01:51;;;;;;;36.88;21.75;;;;;;;4.37;70.92;100163.97;5014285;28;20025;-82
2021/01/01 10:04:16;;;;;;;30.95;19.88;;;;;;;4.44;71.20;100163.69;5026078;28;20026;-82
2021/01/01 10:06:42;;;;;;;37.20;22.65;;;;;;;4.46;70.83;100156.66;5017072;28;20040;-82
2021/01/01 10:09:07;;;;;;;37.15;22.95;;;;;;;4.55;70.78;100156.25;5012981;28;20040;-82
2021/01/01 10:11:33;;;;;;;41.58;26.48;;;;;;;4.70;69.32;100165.91;5014790;28;20110;-81
2021/01/01 10:13:58;;;;;;;46.88;28.73;;;;;;;4.58;70.25;100171.69;5016100;28;20032;-81
2021/01/01 10:16:23;;;;;;;39.10;24.70;;;;;;;4.54;69.83;100175.34;5022198;28;20439;-84
2021/01/01 10:18:49;;;;;;;43.92;26.30;;;;;;;4.47;70.01;100174.78;5013265;28;20030;-81
2021/01/01 10:21:18;;;;;;;40.83;26.50;;;;;;;4.56;70.56;100184.78;5015232;28;20030;-81
2021/01/01 10:23:44;;;;;;;40.50;26.08;;;;;;;4.67;69.58;100176.47;5024631;28;20030;-81
2021/01/01 10:26:09;;;;;;;38.15;24.58;;;;;;;4.60;70.13;100179.41;5029590;28;20032;-81
2021/01/01 10:28:35;;;;;;;36.10;21.67;;;;;;;4.51;71.42;100183.28;5023440;28;20029;-81
2021/01/01 10:31:00;;;;;;;33.13;20.38;;;;;;;4.68;70.06;100182.50;5012205;28;20113;-81
2021/01/01 10:33:25;;;;;;;28.60;19.30;;;;;;;4.70;69.83;100186.72;5023022;28;20075;-81
2021/01/01 10:35:51;;;;;;;37.30;23.02;;;;;;;4.70;71.07;100184.13;5024446;28;20475;-81
2021/01/01 10:38:16;;;;;;;27.88;18.42;;;;;;;4.72;71.33;100174.50;5020225;28;20037;-81
2021/01/01 10:40:42;;;;;;;25.48;16.67;;;;;;;4.82;70.76;100184.44;5022050;28;20037;-81
2021/01/01 10:43:08;;;;;;;26.00;18.05;;;;;;;4.90;71.33;100179.75;5027681;28;20025;-81
2021/01/01 10:45:33;;;;;;;26.55;15.93;;;;;;;4.99;70.81;100189.69;5024039;28;20388;-81
2021/01/01 10:47:58;;;;;;;28.27;15.40;;;;;;;4.88;70.90;100184.16;5030199;28;20111;-81
2021/01/01 10:50:24;;;;;;;23.27;16.67;;;;;;;5.15;70.72;100188.03;5021670;28;20076;-81
2021/01/01 10:52:49;;;;;;;23.10;14.50;;;;;;;5.22;69.74;100185.97;5021963;28;20026;-81
2021/01/01 10:55:14;;;;;;;21.67;15.82;;;;;;;5.13;70.53;100187.28;5018744;28;20026;-81
2021/01/01 10:57:40;;;;;;;23.35;15.48;;;;;;;5.15;70.28;100192.38;5032162;28;20056;-80
2021/01/01 11:00:06;;;;;;;22.15;14.82;;;;;;;5.26;70.55;100192.72;5026294;28;20053;-81
2021/01/01 11:02:32;;;;;;;24.50;15.52;;;;;;;5.21;70.43;100192.06;5013857;28;20384;-80
2021/01/01 11:04:57;;;;;;;23.77;16.00;;;;;;;5.21;71.09;100191.25;5023986;28;20025;-80
2021/01/01 11:07:22;;;;;;;24.45;15.98;;;;;;;5.15;70.99;100198.44;5018899;28;20040;-81
2021/01/01 11:09:48;;;;;;;22.35;15.38;;;;;;;5.29;70.38;100197.78;5017452;28;20030;-81
2021/01/01 11:12:13;;;;;;;23.13;15.73;;;;;;;5.31;70.47;100198.53;5023080;28;20022;-81
2021/01/01 12:25:19;;;;;;;21.67;15.52;;;;;;;5.51;71.69;100161.09;5030067;28;20034;-81
2021/01/01 12:27:46;;;;;;;21.23;15.18;;;;;;;5.50;71.85;100159.38;5030863;28;20040;-81
2021/01/01 12:30:12;;;;;;;22.73;14.77;;;;;;;5.55;71.80;100149.59;5028292;28;20033;-82